createdAt,value
2018-02-09T00:00:11.113Z,99.00
2018-02-09T00:02:38.741Z,99.10
2018-02-09T00:05:06.345Z,99.30
2018-02-09T00:07:36.688Z,99.50
2018-02-09T00:10:04.377Z,99.50
2018-02-09T00:12:32.355Z,99.30
2018-02-09T00:14:59.940Z,99.40
2018-02-09T00:17:27.812Z,99.40
2018-02-09T00:19:55.406Z,99.50
2018-02-09T00:22:34.780Z,99.30
2018-02-09T00:25:03.154Z,99.00
2018-02-09T00:27:30.782Z,99.00
2018-02-09T00:29:58.383Z,99.20
2018-02-09T00:32:26.018Z,99.30
2018-02-09T00:34:53.617Z,99.20
2018-02-09T00:37:21.286Z,99.60
2018-02-09T00:39:48.887Z,99.90
2018-02-09T00:42:16.735Z,99.90
2018-02-09T00:44:44.358Z,99.60
2018-02-09T00:47:11.947Z,99.60
2018-02-09T00:49:40.340Z,99.70
2018-02-09T00:52:08.156Z,99.70
2018-02-09T00:54:35.801Z,99.80
2018-02-09T00:57:03.670Z,99.80
2018-02-09T00:59:31.297Z,99.60
2018-02-09T01:01:58.889Z,99.50
2018-02-09T01:04:26.518Z,99.90
2018-02-09T01:06:54.104Z,99.70
2018-02-09T01:09:21.757Z,99.40
2018-02-09T01:11:49.367Z,99.20
2018-02-09T01:14:17.751Z,99.60
2018-02-09T01:16:46.430Z,99.90
2018-02-09T01:19:14.800Z,99.60
2018-02-09T01:21:42.552Z,99.60
2018-02-09T01:24:10.144Z,99.90
2018-02-09T01:26:38.709Z,99.90
2018-02-09T01:29:07.089Z,99.90
2018-02-09T01:31:35.468Z,99.90
2018-02-09T01:34:03.853Z,99.90
2018-02-09T01:36:32.523Z,99.90
2018-02-09T01:39:00.129Z,99.90
2018-02-09T01:41:28.039Z,99.90
2018-02-09T01:43:55.665Z,99.90
2018-02-09T01:46:23.562Z,99.90
2018-02-09T01:48:51.172Z,99.90
2018-02-09T01:51:18.797Z,99.90
2018-02-09T01:53:47.203Z,99.90
2018-02-09T01:56:14.869Z,99.90
2018-02-09T01:58:42.512Z,99.90
2018-02-09T02:01:11.019Z,99.90
2018-02-09T02:03:38.688Z,99.90
2018-02-09T02:06:06.311Z,99.90
2018-02-09T02:08:34.727Z,99.90
2018-02-09T02:11:02.438Z,99.90
2018-02-09T02:13:30.105Z,99.90
2018-02-09T02:15:59.473Z,99.90
2018-02-09T02:18:27.863Z,99.90
2018-02-09T02:20:55.634Z,99.90
2018-02-09T02:23:23.254Z,99.90
2018-02-09T02:25:50.893Z,99.90
2018-02-09T02:28:18.503Z,99.90
2018-02-09T02:30:46.404Z,99.90
2018-02-09T02:33:14.033Z,99.90
2018-02-09T02:35:41.935Z,99.90
2018-02-09T02:38:09.546Z,99.90
2018-02-09T02:40:39.303Z,99.90
2018-02-09T02:43:07.692Z,99.90
2018-02-09T02:45:35.386Z,99.90
2018-02-09T02:48:02.998Z,99.90
2018-02-09T02:50:31.536Z,99.90
2018-02-09T02:52:59.150Z,99.90
2018-02-09T02:55:26.793Z,99.90
2018-02-09T02:57:55.186Z,99.90
2018-02-09T03:00:22.851Z,99.90
2018-02-09T03:02:50.493Z,99.90
2018-02-09T03:05:19.111Z,99.90
2018-02-09T03:07:46.744Z,99.90
2018-02-09T03:10:15.161Z,99.90
2018-02-09T03:12:42.815Z,99.90
2018-02-09T03:15:10.432Z,99.90
2018-02-09T03:17:38.065Z,99.90
2018-02-09T03:20:05.974Z,99.90
2018-02-09T03:22:33.605Z,99.90
2018-02-09T03:25:01.474Z,99.90
2018-02-09T03:27:29.089Z,99.90
2018-02-09T03:29:56.738Z,99.90
2018-02-09T03:32:24.398Z,99.90
2018-02-09T03:34:52.204Z,99.90
2018-02-09T03:37:19.818Z,99.90
2018-02-09T03:39:47.474Z,99.90
2018-02-09T03:42:15.089Z,99.90
2018-02-09T03:44:42.973Z,99.90
2018-02-09T03:47:10.573Z,99.90
2018-02-09T03:49:38.242Z,99.90
2018-02-09T03:52:05.855Z,99.90
2018-02-09T03:54:34.285Z,99.90
2018-02-09T03:57:01.934Z,99.90
2018-02-09T03:59:29.547Z,99.90
2018-02-09T04:01:57.169Z,99.90
2018-02-09T04:04:24.775Z,99.90
2018-02-09T04:06:53.183Z,99.90
2018-02-09T04:09:20.889Z,99.90
2018-02-09T04:11:48.534Z,99.90
2018-02-09T04:14:18.822Z,99.90
2018-02-09T04:16:46.450Z,99.90
2018-02-09T04:19:14.072Z,99.90
2018-02-09T04:21:41.739Z,99.90
2018-02-09T04:24:09.349Z,99.90
2018-02-09T04:26:37.753Z,99.90
2018-02-09T04:29:05.419Z,99.90
2018-02-09T04:31:33.061Z,99.90
2018-02-09T04:34:00.663Z,99.90
2018-02-09T04:36:28.316Z,99.90
2018-02-09T04:38:58.074Z,99.90
2018-02-09T04:41:26.438Z,99.90
2018-02-09T04:43:54.221Z,99.90
2018-02-09T04:46:22.599Z,99.90
2018-02-09T04:48:50.996Z,99.90
2018-02-09T04:51:18.605Z,99.90
2018-02-09T04:53:46.498Z,99.90
2018-02-09T04:56:14.870Z,99.90
2018-02-09T04:58:43.260Z,99.90
2018-02-09T05:01:11.685Z,99.90
2018-02-09T05:03:39.353Z,99.90
2018-02-09T05:06:06.967Z,99.90
2018-02-09T05:08:34.598Z,99.90
2018-02-09T05:11:02.650Z,99.90
2018-02-09T05:13:31.374Z,99.90
2018-02-09T05:15:59.761Z,99.90
2018-02-09T05:18:27.511Z,99.90
2018-02-09T05:20:55.885Z,99.90
2018-02-09T05:23:24.294Z,99.90
2018-02-09T05:25:51.889Z,99.90
2018-02-09T05:28:19.541Z,99.90
2018-02-09T05:30:47.154Z,99.90
2018-02-09T05:33:15.545Z,99.90
2018-02-09T05:35:43.162Z,99.90
2018-02-09T05:38:11.738Z,99.90
2018-02-09T05:40:39.389Z,99.90
2018-02-09T05:43:07.266Z,99.90
2018-02-09T05:45:34.910Z,99.90
2018-02-09T05:48:02.522Z,99.90
2018-02-09T05:50:30.920Z,99.90
2018-02-09T05:52:58.615Z,99.90
2018-02-09T05:55:26.249Z,99.90
2018-02-09T05:57:53.862Z,99.90
2018-02-09T06:00:21.466Z,99.90
2018-02-09T06:02:49.119Z,99.90
2018-02-09T06:05:16.733Z,99.90
2018-02-09T06:07:44.369Z,99.90
2018-02-09T06:10:12.006Z,99.90
2018-02-09T06:12:41.681Z,99.90
2018-02-09T06:15:10.044Z,99.90
2018-02-09T06:17:37.801Z,99.90
2018-02-09T06:20:05.416Z,99.90
2018-02-09T06:22:33.057Z,99.90
2018-02-09T06:25:00.658Z,99.90
2018-02-09T06:27:29.137Z,99.90
2018-02-09T06:29:56.760Z,99.90
2018-02-09T06:32:24.366Z,99.90
2018-02-09T06:34:51.986Z,99.90
2018-02-09T06:37:19.594Z,99.90
2018-02-09T06:39:47.210Z,99.90
2018-02-09T06:42:14.801Z,99.90
2018-02-09T06:44:42.481Z,99.90
2018-02-09T06:47:10.083Z,99.90
2018-02-09T06:49:37.734Z,99.90
2018-02-09T06:52:05.546Z,99.90
2018-02-09T06:54:33.153Z,99.90
2018-02-09T06:57:02.210Z,99.90
2018-02-09T06:59:29.839Z,99.90
2018-02-09T07:01:57.555Z,99.90
2018-02-09T07:04:25.953Z,99.90
2018-02-09T07:06:53.690Z,99.90
2018-02-09T07:09:26.013Z,99.90
2018-02-09T07:11:53.847Z,99.90
2018-02-09T07:14:22.222Z,99.90
2018-02-09T07:16:52.748Z,99.90
2018-02-09T07:19:21.132Z,99.90
2018-02-09T07:21:48.880Z,99.90
2018-02-09T07:24:17.275Z,99.90
2018-02-09T07:26:44.987Z,99.90
2018-02-09T07:29:12.703Z,99.90
2018-02-09T07:31:40.319Z,99.90
2018-02-09T07:34:07.950Z,99.90
2018-02-09T07:36:35.766Z,99.90
2018-02-09T07:39:04.199Z,99.90
2018-02-09T07:41:32.817Z,99.90
2018-02-09T07:44:00.475Z,99.90
2018-02-09T07:46:28.104Z,99.90
2018-02-09T07:48:55.735Z,99.90
2018-02-09T07:51:23.534Z,99.90
2018-02-09T07:53:51.191Z,99.90
2018-02-09T07:56:18.804Z,99.90
2018-02-09T07:58:47.448Z,99.90
2018-02-09T08:01:17.063Z,99.90
2018-02-09T08:03:44.701Z,99.90
2018-02-09T08:06:12.399Z,99.90
2018-02-09T08:08:40.017Z,99.90
2018-02-09T08:11:08.805Z,99.90
2018-02-09T08:13:36.403Z,99.90
2018-02-09T08:16:04.048Z,99.90
2018-02-09T08:18:31.637Z,99.90
2018-02-09T08:21:00.222Z,99.90
2018-02-09T08:23:28.627Z,99.90
2018-02-09T08:25:56.265Z,99.90
2018-02-09T08:28:24.640Z,99.90
2018-02-09T08:30:53.025Z,99.90
2018-02-09T08:33:21.394Z,99.90
2018-02-09T08:35:49.796Z,99.90
2018-02-09T08:38:17.406Z,99.90
2018-02-09T08:40:45.047Z,99.90
2018-02-09T08:43:12.706Z,99.90
2018-02-09T08:45:41.421Z,99.90
2018-02-09T08:48:09.068Z,99.90
2018-02-09T08:50:36.736Z,99.90
2018-02-09T08:53:04.335Z,99.90
2018-02-09T08:55:32.230Z,99.90
2018-02-09T08:57:59.886Z,99.90
2018-02-09T09:00:27.803Z,99.90
2018-02-09T09:02:56.232Z,99.90
2018-02-09T09:05:25.162Z,99.90
2018-02-09T09:07:52.799Z,99.90
2018-02-09T09:10:20.669Z,99.90
2018-02-09T09:12:48.349Z,99.90
2018-02-09T09:15:16.216Z,99.90
2018-02-09T09:17:43.846Z,99.90
2018-02-09T09:20:12.684Z,99.90
2018-02-09T09:22:41.045Z,99.90
2018-02-09T09:25:08.711Z,99.90
2018-02-09T09:27:36.309Z,99.90
2018-02-09T09:30:03.931Z,99.90
2018-02-09T09:32:31.533Z,99.90
2018-02-09T09:34:59.169Z,99.90
2018-02-09T09:37:26.770Z,99.90
2018-02-09T09:39:54.390Z,99.90
2018-02-09T09:42:21.995Z,99.90
2018-02-09T09:44:50.649Z,99.90
2018-02-09T09:47:18.243Z,99.90
2018-02-09T09:49:46.037Z,99.90
2018-02-09T09:52:14.410Z,99.90
2018-02-09T09:54:42.264Z,99.90
2018-02-09T09:57:09.911Z,99.90
2018-02-09T09:59:37.769Z,99.90
2018-02-09T10:02:05.432Z,99.60
2018-02-09T10:04:33.303Z,99.50
2018-02-09T10:07:00.925Z,99.40
2018-02-09T10:09:28.835Z,98.90
2018-02-09T10:11:56.478Z,98.90
2018-02-09T10:14:24.381Z,97.80
2018-02-09T10:16:51.996Z,97.50
2018-02-09T10:19:21.749Z,98.10
2018-02-09T10:21:49.399Z,97.10
2018-02-09T10:24:17.255Z,97.20
2018-02-09T10:26:44.879Z,97.00
2018-02-09T10:29:12.787Z,96.80
2018-02-09T10:31:40.402Z,96.50
2018-02-09T10:34:08.340Z,95.30
2018-02-09T10:36:36.744Z,95.90
2018-02-09T10:39:04.402Z,95.80
2018-02-09T10:41:32.003Z,95.80
2018-02-09T10:43:59.616Z,95.40
2018-02-09T10:46:27.219Z,95.60
2018-02-09T10:48:56.167Z,95.90
2018-02-09T10:51:23.814Z,95.50
2018-02-09T10:53:52.239Z,95.00
2018-02-09T10:56:19.838Z,95.00
2018-02-09T10:58:48.191Z,95.30
2018-02-09T11:01:21.429Z,94.70
2018-02-09T11:03:51.338Z,95.50
2018-02-09T11:06:19.702Z,94.30
2018-02-09T11:08:47.385Z,94.30
2018-02-09T11:11:16.903Z,94.20
2018-02-09T11:13:48.242Z,94.60
2018-02-09T11:16:15.909Z,94.50
2018-02-09T11:18:43.779Z,94.20
2018-02-09T11:21:11.410Z,94.70
2018-02-09T11:23:39.800Z,93.60
2018-02-09T11:26:07.433Z,93.60
2018-02-09T11:28:35.032Z,93.70
2018-02-09T11:31:02.689Z,94.00
2018-02-09T11:33:31.454Z,93.80
2018-02-09T11:35:59.846Z,94.50
2018-02-09T11:38:28.225Z,93.80
2018-02-09T11:40:55.853Z,93.80
2018-02-09T11:43:23.438Z,94.80
2018-02-09T11:45:51.817Z,93.10
2018-02-09T11:48:20.187Z,92.70
2018-02-09T11:50:48.583Z,92.20
2018-02-09T11:53:16.409Z,92.20
2018-02-09T11:55:44.015Z,92.00
2018-02-09T11:58:12.876Z,92.90
2018-02-09T12:00:41.241Z,92.60
2018-02-09T12:03:09.022Z,92.60
2018-02-09T12:05:37.392Z,92.00
2018-02-09T12:08:06.038Z,91.70
2018-02-09T12:10:33.659Z,91.70
2018-02-09T12:13:01.275Z,90.60
2018-02-09T12:15:28.872Z,90.80
2018-02-09T12:17:56.509Z,91.70
2018-02-09T12:20:24.128Z,91.10
2018-02-09T12:22:52.919Z,91.80
2018-02-09T12:25:20.552Z,91.70
2018-02-09T12:27:48.206Z,91.10
2018-02-09T12:30:15.814Z,91.10
2018-02-09T12:32:43.631Z,91.30
2018-02-09T12:35:11.270Z,90.60
2018-02-09T12:37:39.839Z,90.70
2018-02-09T12:40:07.486Z,90.70
2018-02-09T12:42:35.300Z,90.20
2018-02-09T12:45:02.958Z,90.20
2018-02-09T12:47:30.592Z,90.40
2018-02-09T12:49:58.245Z,88.20
2018-02-09T12:52:27.955Z,87.90
2018-02-09T12:54:55.579Z,90.00
2018-02-09T12:57:25.318Z,89.40
2018-02-09T12:59:52.899Z,90.40
2018-02-09T13:02:21.461Z,88.30
2018-02-09T13:04:49.052Z,88.20
2018-02-09T13:07:16.686Z,87.20
2018-02-09T13:09:44.273Z,87.80
2018-02-09T13:12:24.886Z,90.00
2018-02-09T13:14:54.401Z,89.30
2018-02-09T13:17:22.027Z,89.30
2018-02-09T13:19:49.622Z,90.00
2018-02-09T13:22:29.243Z,89.00
2018-02-09T13:24:56.826Z,88.50
2018-02-09T13:27:24.654Z,88.70
2018-02-09T13:29:52.249Z,88.60
2018-02-09T13:32:32.136Z,90.00
2018-02-09T13:34:59.781Z,88.90
2018-02-09T13:37:34.398Z,87.70
2018-02-09T13:40:02.766Z,88.90
2018-02-09T13:42:31.435Z,88.80
2018-02-09T13:44:59.066Z,89.60
2018-02-09T13:47:26.671Z,89.90
2018-02-09T13:49:54.328Z,88.30
2018-02-09T13:52:23.086Z,89.00
2018-02-09T13:54:51.528Z,89.40
2018-02-09T13:57:19.155Z,89.30
2018-02-09T13:59:46.779Z,89.60
2018-02-09T14:02:14.385Z,89.80
2018-02-09T14:04:42.762Z,90.50
2018-02-09T14:07:10.602Z,90.40
2018-02-09T14:09:38.244Z,90.10
2018-02-09T14:12:06.129Z,90.30
2018-02-09T14:14:33.737Z,90.10
2018-02-09T14:17:01.328Z,90.70
2018-02-09T14:19:29.721Z,90.30
2018-02-09T14:21:57.477Z,90.50
2018-02-09T14:24:25.076Z,90.60
2018-02-09T14:26:53.654Z,91.00
2018-02-09T14:29:22.008Z,91.20
2018-02-09T14:31:49.797Z,91.10
2018-02-09T14:34:18.164Z,90.90
2018-02-09T14:36:45.934Z,90.90
2018-02-09T14:39:13.520Z,91.30
2018-02-09T14:41:41.147Z,91.10
2018-02-09T14:44:08.733Z,91.30
2018-02-09T14:46:37.122Z,91.50
2018-02-09T14:49:04.736Z,91.50
2018-02-09T14:51:33.430Z,91.70
2018-02-09T14:54:01.019Z,91.90
2018-02-09T14:56:29.579Z,92.20
2018-02-09T14:58:57.176Z,92.20
2018-02-09T15:01:24.777Z,92.10
2018-02-09T15:03:52.400Z,92.70
2018-02-09T15:06:20.014Z,92.90
2018-02-09T15:08:48.378Z,93.10
2018-02-09T15:11:16.139Z,93.60
2018-02-09T15:13:43.754Z,93.60
2018-02-09T15:16:11.342Z,93.90
2018-02-09T15:18:38.978Z,94.00
2018-02-09T15:21:06.569Z,94.20
2018-02-09T15:23:34.258Z,94.40
2018-02-09T15:26:02.090Z,94.50
2018-02-09T15:28:29.714Z,94.20
2018-02-09T15:30:57.316Z,94.50
2018-02-09T15:33:24.910Z,94.80
2018-02-09T15:35:53.469Z,95.10
2018-02-09T15:38:21.063Z,95.10
2018-02-09T15:40:49.620Z,95.40
2018-02-09T15:43:17.214Z,95.40
2018-02-09T15:45:46.064Z,95.20
2018-02-09T15:48:13.665Z,95.20
2018-02-09T15:50:45.283Z,95.20
2018-02-09T15:53:12.875Z,95.00
2018-02-09T15:55:41.692Z,95.10
2018-02-09T15:58:09.296Z,95.30
2018-02-09T16:00:37.822Z,95.10
2018-02-09T16:03:05.428Z,95.00
2018-02-09T16:05:33.062Z,95.00
2018-02-09T16:08:00.670Z,94.90
2018-02-09T16:10:29.240Z,95.20
2018-02-09T16:12:57.604Z,95.70
2018-02-09T16:15:25.382Z,96.00
2018-02-09T16:17:53.800Z,95.50
2018-02-09T16:20:21.462Z,95.50
2018-02-09T16:22:49.059Z,95.90
2018-02-09T16:25:16.649Z,95.70
2018-02-09T16:27:45.043Z,96.30
2018-02-09T16:30:12.842Z,96.30
2018-02-09T16:32:40.499Z,96.30
2018-02-09T16:35:08.087Z,96.40
2018-02-09T16:37:35.704Z,96.40
2018-02-09T16:40:03.323Z,96.50
2018-02-09T16:42:31.729Z,96.80
2018-02-09T16:44:59.380Z,96.70
2018-02-09T16:47:27.011Z,96.80
2018-02-09T16:49:54.610Z,96.90
2018-02-09T16:52:22.215Z,97.00
2018-02-09T16:54:49.846Z,97.00
2018-02-09T16:57:17.435Z,97.10
2018-02-09T16:59:45.064Z,97.30
2018-02-09T17:02:12.657Z,97.30
2018-02-09T17:04:40.268Z,97.50
2018-02-09T17:07:07.864Z,97.40
2018-02-09T17:09:35.501Z,97.30
2018-02-09T17:12:03.080Z,97.20
2018-02-09T17:14:30.729Z,97.10
2018-02-09T17:16:58.329Z,97.20
2018-02-09T17:19:25.956Z,97.40
2018-02-09T17:21:53.549Z,97.80
2018-02-09T17:24:21.129Z,97.70
2018-02-09T17:26:48.762Z,97.60
2018-02-09T17:29:16.353Z,97.60
2018-02-09T17:31:43.983Z,97.80
2018-02-09T17:34:11.571Z,97.90
2018-02-09T17:36:39.194Z,98.10
2018-02-09T17:39:06.799Z,98.10
2018-02-09T17:41:34.421Z,98.10
2018-02-09T17:44:02.987Z,98.20
2018-02-09T17:46:30.620Z,98.30
2018-02-09T17:48:58.224Z,98.40
2018-02-09T17:51:25.845Z,98.10
2018-02-09T17:53:53.440Z,98.20
2018-02-09T17:56:21.064Z,98.20
2018-02-09T17:58:48.687Z,98.20
2018-02-09T18:01:17.106Z,98.90
2018-02-09T18:03:44.752Z,98.90
2018-02-09T18:06:12.383Z,99.30
2018-02-09T18:08:40.915Z,99.30
2018-02-09T18:11:08.532Z,99.30
2018-02-09T18:13:36.144Z,99.40
2018-02-09T18:16:03.782Z,99.50
2018-02-09T18:18:31.369Z,99.50
2018-02-09T18:20:58.951Z,99.60
2018-02-09T18:23:27.540Z,99.80
2018-02-09T18:25:55.906Z,99.80
2018-02-09T18:28:23.654Z,99.80
2018-02-09T18:30:51.249Z,99.90
2018-02-09T18:33:19.806Z,99.50
2018-02-09T18:35:47.399Z,99.50
2018-02-09T18:38:15.020Z,99.10
2018-02-09T18:40:42.618Z,99.30
2018-02-09T18:43:10.227Z,99.50
2018-02-09T18:45:37.819Z,99.40
2018-02-09T18:48:06.372Z,99.50
2018-02-09T18:50:33.965Z,99.50
2018-02-09T18:53:02.548Z,99.80
2018-02-09T18:55:30.899Z,99.80
2018-02-09T18:57:58.652Z,99.90
2018-02-09T19:00:26.256Z,99.70
2018-02-09T19:02:53.871Z,99.90
2018-02-09T19:05:21.459Z,99.90
2018-02-09T19:07:49.858Z,99.90
2018-02-09T19:10:17.455Z,99.80
2018-02-09T19:12:45.192Z,99.60
2018-02-09T19:15:12.834Z,99.80
2018-02-09T19:17:40.423Z,99.90
2018-02-09T19:20:08.036Z,99.90
2018-02-09T19:22:36.615Z,99.90
2018-02-09T19:25:04.219Z,99.90
2018-02-09T19:27:31.791Z,99.90
2018-02-09T19:29:59.417Z,99.60
2018-02-09T19:32:26.994Z,99.70
2018-02-09T19:34:54.574Z,99.80
2018-02-09T19:37:22.231Z,99.80
2018-02-09T19:39:49.815Z,99.70
2018-02-09T19:42:17.463Z,99.80
2018-02-09T19:44:45.039Z,99.80
2018-02-09T19:47:12.664Z,99.90
2018-02-09T19:49:40.240Z,99.90
2018-02-09T19:52:07.921Z,99.90
2018-02-09T19:54:35.513Z,99.90
2018-02-09T19:57:04.180Z,99.90
2018-02-09T19:59:32.543Z,99.90
2018-02-09T20:02:00.196Z,99.90
2018-02-09T20:04:27.791Z,99.90
2018-02-09T20:06:56.345Z,99.90
2018-02-09T20:09:23.945Z,99.90
2018-02-09T20:11:51.552Z,99.90
2018-02-09T20:14:19.180Z,99.90
2018-02-09T20:16:46.772Z,99.90
2018-02-09T20:19:14.391Z,99.90
2018-02-09T20:21:41.974Z,99.90
2018-02-09T20:24:09.588Z,99.90
2018-02-09T20:26:38.128Z,99.90
2018-02-09T20:29:05.728Z,99.90
2018-02-09T20:31:34.089Z,99.90
2018-02-09T20:34:02.561Z,99.90
2018-02-09T20:36:31.012Z,99.90
2018-02-09T20:38:58.648Z,99.90
2018-02-09T20:41:26.235Z,99.90
2018-02-09T20:43:53.839Z,99.90
2018-02-09T20:46:22.363Z,99.70
2018-02-09T20:48:49.976Z,99.70
2018-02-09T20:51:18.492Z,99.90
2018-02-09T20:53:46.100Z,99.90
2018-02-09T20:56:14.661Z,99.80
2018-02-09T20:58:42.244Z,99.90
2018-02-09T21:01:10.811Z,99.90
2018-02-09T21:03:38.400Z,99.90
2018-02-09T21:06:06.969Z,99.90
2018-02-09T21:08:34.567Z,99.90
2018-02-09T21:11:02.282Z,99.90
2018-02-09T21:13:29.872Z,99.90
2018-02-09T21:15:58.314Z,99.90
2018-02-09T21:18:25.893Z,99.90
2018-02-09T21:20:54.464Z,99.90
2018-02-09T21:23:22.055Z,99.90
2018-02-09T21:25:49.671Z,99.90
2018-02-09T21:28:17.264Z,99.90
2018-02-09T21:30:45.917Z,99.90
2018-02-09T21:33:13.492Z,99.90
2018-02-09T21:35:41.144Z,99.90
2018-02-09T21:38:09.502Z,99.90
2018-02-09T21:40:37.283Z,99.90
2018-02-09T21:43:04.862Z,99.90
2018-02-09T21:45:33.409Z,99.90
2018-02-09T21:48:01.816Z,99.90
2018-02-09T21:50:36.048Z,99.90
2018-02-09T21:53:03.985Z,99.90
2018-02-09T21:55:32.744Z,99.90
2018-02-09T21:58:00.349Z,99.90
2018-02-09T22:00:28.887Z,99.90
2018-02-09T22:02:57.670Z,99.90
2018-02-09T22:05:25.355Z,99.90
2018-02-09T22:07:52.968Z,99.90
2018-02-09T22:10:20.897Z,99.90
2018-02-09T22:12:48.555Z,99.90
2018-02-09T22:15:17.316Z,99.90
2018-02-09T22:17:44.931Z,99.90
2018-02-09T22:20:13.444Z,99.90
2018-02-09T22:22:41.058Z,99.90
2018-02-09T22:25:09.604Z,99.90
2018-02-09T22:27:37.218Z,99.90
2018-02-09T22:30:05.134Z,99.90
2018-02-09T22:32:32.714Z,99.90
2018-02-09T22:35:00.445Z,99.90
2018-02-09T22:37:28.736Z,99.90
2018-02-09T22:39:56.495Z,99.90
2018-02-09T22:42:24.082Z,99.90
2018-02-09T22:44:52.637Z,99.90
2018-02-09T22:47:20.233Z,99.90
2018-02-09T22:49:48.795Z,99.90
2018-02-09T22:52:16.389Z,99.90
2018-02-09T22:54:46.156Z,99.90
2018-02-09T22:57:13.757Z,99.90
2018-02-09T22:59:41.681Z,99.90
2018-02-09T23:02:11.306Z,99.90
2018-02-09T23:04:39.991Z,99.90
2018-02-09T23:07:07.571Z,99.90
2018-02-09T23:09:35.510Z,99.90
2018-02-09T23:12:03.135Z,99.90
2018-02-09T23:14:31.013Z,99.90
2018-02-09T23:16:58.628Z,99.90
2018-02-09T23:19:26.551Z,99.90
2018-02-09T23:21:54.161Z,99.90
2018-02-09T23:24:22.889Z,99.90
2018-02-09T23:26:50.519Z,99.90
2018-02-09T23:29:18.109Z,99.90
2018-02-09T23:31:45.725Z,99.90
2018-02-09T23:34:13.335Z,99.90
2018-02-09T23:36:40.968Z,99.90
2018-02-09T23:39:08.572Z,99.90
2018-02-09T23:41:36.174Z,99.90
2018-02-09T23:44:03.775Z,99.90
2018-02-09T23:46:31.388Z,99.90
2018-02-09T23:48:58.982Z,99.90
2018-02-09T23:51:26.634Z,99.90
2018-02-09T23:53:54.216Z,99.90
2018-02-09T23:56:21.801Z,99.90
2018-02-09T23:58:50.185Z,99.90
